Time;durP1;ratioP1;P1;durP2;ratioP2;P2;SDS_P1;SDS_P2;PMS_P1;PMS_P2;Temp;Humidity;BMP_temperature;BMP_pressure;BME280_temperature;BME280_humidity;BME280_pressure;Samples;Min_cycle;Max_cycle;Signal;HPM_P1;HPM_P2
2023/01/24 00:00:26;;;;;;;11.67;10.47;;;;;;;-0.53;100.00;98462.09;4995800;28;20274;-62
2023/01/24 00:02:54;;;;;;;11.43;10.20;;;;;;;-0.52;100.00;98456.81;5005362;28;20203;-62
2023/01/24 00:05:22;;;;;;;10.93;9.63;;;;;;;-0.48;100.00;98467.91;4982252;28;20704;-64
2023/01/24 00:07:49;;;;;;;11.03;9.80;;;;;;;-0.50;100.00;98467.97;4959656;28;20514;-62
2023/01/24 00:10:17;;;;;;;11.77;10.53;;;;;;;-0.47;100.00;98466.97;5004867;28;20429;-65
2023/01/24 00:12:45;;;;;;;10.00;9.00;;;;;;;-0.45;100.00;98460.75;5005347;28;20421;-63
2023/01/24 00:15:14;;;;;;;10.63;9.53;;;;;;;-0.47;100.00;98460.00;4981855;28;20329;-62
2023/01/24 00:17:41;;;;;;;10.43;9.33;;;;;;;-0.50;100.00;98467.16;5008589;28;20205;-64
2023/01/24 00:20:10;;;;;;;10.07;9.03;;;;;;;-0.51;100.00;98457.66;4983829;28;20204;-63
2023/01/24 00:22:38;;;;;;;10.07;8.97;;;;;;;-0.49;100.00;98458.41;5003971;28;20204;-65
2023/01/24 00:25:07;;;;;;;9.07;8.17;;;;;;;-0.49;100.00;98467.03;4958796;28;20751;-61
2023/01/24 00:27:35;;;;;;;10.67;9.57;;;;;;;-0.51;100.00;98466.28;5003811;28;20294;-63
2023/01/24 00:30:04;;;;;;;10.23;9.23;;;;;;;-0.48;100.00;98463.53;4980337;28;20227;-64
2023/01/24 00:32:33;;;;;;;9.37;8.47;;;;;;;-0.53;100.00;98462.94;5004679;28;20748;-66
2023/01/24 00:35:01;;;;;;;8.63;7.83;;;;;;;-0.48;100.00;98473.13;5000917;28;20242;-64
2023/01/24 00:37:28;;;;;;;11.47;9.57;;;;;;;-0.45;100.00;98467.75;4984105;28;20569;-64
2023/01/24 00:39:56;;;;;;;10.57;8.73;;;;;;;-0.46;100.00;98456.47;4955466;28;20224;-64
2023/01/24 00:42:23;;;;;;;8.93;8.03;;;;;;;-0.45;100.00;98462.53;5000430;28;20349;-64
2023/01/24 00:44:51;;;;;;;9.87;8.87;;;;;;;-0.52;100.00;98450.78;4994320;28;20220;-65
2023/01/24 00:47:19;;;;;;;9.17;8.27;;;;;;;-0.45;100.00;98452.94;4989039;28;20361;-66
2023/01/24 00:49:47;;;;;;;8.83;7.93;;;;;;;-0.44;100.00;98453.78;4984396;28;20592;-62
2023/01/24 00:52:15;;;;;;;10.10;7.33;;;;;;;-0.44;100.00;98449.41;4986248;28;20325;-62
2023/01/24 00:54:43;;;;;;;8.70;7.80;;;;;;;-0.43;100.00;98460.69;4968199;28;20246;-61
2023/01/24 00:57:10;;;;;;;8.90;7.93;;;;;;;-0.42;100.00;98456.28;5007036;28;20665;-62
2023/01/24 00:59:38;;;;;;;7.73;6.97;;;;;;;-0.41;100.00;98463.19;5006309;28;20235;-62
2023/01/24 01:02:07;;;;;;;9.73;7.80;;;;;;;-0.45;100.00;98452.13;4987272;28;20200;-62
2023/01/24 01:04:35;;;;;;;8.33;7.53;;;;;;;-0.44;100.00;98452.00;5000552;28;20704;-62
2023/01/24 01:07:03;;;;;;;8.17;7.37;;;;;;;-0.42;100.00;98464.97;4984287;28;20733;-62
2023/01/24 01:09:31;;;;;;;8.17;7.37;;;;;;;-0.45;100.00;98452.94;4963560;28;20601;-63
2023/01/24 01:11:59;;;;;;;8.23;7.43;;;;;;;-0.47;100.00;98448.75;5006891;28;20204;-62
2023/01/24 01:14:26;;;;;;;8.00;7.07;;;;;;;-0.48;100.00;98452.28;5007584;28;20295;-63
2023/01/24 01:16:54;;;;;;;8.67;7.80;;;;;;;-0.50;100.00;98451.53;4989272;28;20204;-63
2023/01/24 01:19:21;;;;;;;10.20;7.87;;;;;;;-0.52;100.00;98455.97;4987178;28;20227;-65
2023/01/24 01:21:49;;;;;;;7.83;7.10;;;;;;;-0.52;100.00;98461.19;5002458;28;20209;-63
2023/01/24 01:24:18;;;;;;;7.80;7.10;;;;;;;-0.55;100.00;98466.56;5005445;28;20673;-64
2023/01/24 01:26:46;;;;;;;7.53;6.83;;;;;;;-0.53;100.00;98480.34;4963820;28;20216;-62
2023/01/24 01:29:13;;;;;;;7.27;6.57;;;;;;;-0.48;100.00;98491.34;4985806;28;20228;-62
2023/01/24 01:31:41;;;;;;;7.90;7.20;;;;;;;-0.51;100.00;98491.50;4988996;28;20302;-62
2023/01/24 01:34:09;;;;;;;8.27;7.30;;;;;;;-0.55;100.00;98482.19;5007534;28;20714;-62
2023/01/24 01:36:37;;;;;;;8.13;7.30;;;;;;;-0.48;100.00;98492.16;4992876;28;20275;-63
2023/01/24 01:39:05;;;;;;;7.80;7.10;;;;;;;-0.45;100.00;98491.16;5007024;28;20216;-61
2023/01/24 01:41:34;;;;;;;8.97;7.70;;;;;;;-0.46;100.00;98485.09;4942295;28;20246;-63
2023/01/24 01:47:01;;;;;;;7.70;7.00;;;;;;;-0.41;100.00;98494.44;4974852;28;20349;-62
2023/01/24 01:49:29;;;;;;;8.03;7.23;;;;;;;-0.40;100.00;98496.13;4990648;28;20727;-61
2023/01/24 01:52:00;;;;;;;7.47;6.70;;;;;;;-0.40;100.00;98501.31;4983001;28;20228;-62
2023/01/24 01:54:29;;;;;;;8.03;7.17;;;;;;;-0.42;100.00;98492.75;5006557;28;20310;-62
2023/01/24 01:57:00;;;;;;;7.67;6.97;;;;;;;-0.33;100.00;98494.88;4956137;28;20201;-62
2023/01/24 01:59:29;;;;;;;7.90;7.10;;;;;;;-0.37;100.00;98501.19;5002864;28;20232;-61
2023/01/24 02:01:58;;;;;;;6.50;5.90;;;;;;;-0.41;100.00;98497.91;4982476;28;20438;-62
2023/01/24 02:04:28;;;;;;;7.33;6.63;;;;;;;-0.38;100.00;98495.13;4993348;28;20672;-63
2023/01/24 02:06:59;;;;;;;7.60;6.90;;;;;;;-0.39;100.00;98490.84;4978597;28;20526;-62
2023/01/24 02:09:29;;;;;;;7.80;7.10;;;;;;;-0.38;100.00;98499.47;5003265;28;20224;-64
2023/01/24 02:12:01;;;;;;;7.23;6.53;;;;;;;-0.38;100.00;98494.25;4961811;28;21718;-63
2023/01/24 02:17:16;;;;;;;7.10;6.40;;;;;;;-0.42;100.00;98498.81;4980225;28;20251;-63
2023/01/24 02:19:54;;;;;;;7.63;6.93;;;;;;;-0.42;100.00;98501.41;4977358;28;20973;-63
2023/01/24 02:22:26;;;;;;;7.53;6.83;;;;;;;-0.50;100.00;98493.19;4974809;28;20644;-62
2023/01/24 02:25:02;;;;;;;7.60;6.23;;;;;;;-0.47;100.00;98500.84;5001716;28;20580;-61
2023/01/24 02:27:31;;;;;;;6.97;6.37;;;;;;;-0.45;100.00;98492.00;4955864;28;20752;-62
2023/01/24 02:29:59;;;;;;;7.03;6.33;;;;;;;-0.46;100.00;98499.91;4997539;28;20430;-61
2023/01/24 02:32:27;;;;;;;6.70;6.00;;;;;;;-0.47;100.00;98491.25;4998044;28;20691;-60
2023/01/24 02:34:54;;;;;;;7.87;6.47;;;;;;;-0.48;100.00;98497.38;4969026;28;20405;-61
2023/01/24 02:37:22;;;;;;;7.40;6.80;;;;;;;-0.49;100.00;98500.06;4986566;28;20435;-61
2023/01/24 02:39:54;;;;;;;6.30;5.80;;;;;;;-0.54;100.00;98496.88;5003395;28;20224;-61
2023/01/24 02:42:25;;;;;;;6.87;6.27;;;;;;;-0.64;100.00;98492.13;4983727;28;20212;-63
2023/01/24 02:44:59;;;;;;;6.20;5.70;;;;;;;-0.63;100.00;98499.03;4958159;28;20472;-64
2023/01/24 02:47:32;;;;;;;8.03;6.47;;;;;;;-0.66;100.00;98499.19;5008700;28;20207;-65
2023/01/24 02:50:00;;;;;;;7.60;6.90;;;;;;;-0.69;100.00;98498.53;4995131;28;20252;-64
2023/01/24 02:55:13;;;;;;;6.23;5.67;;;;;;;-0.72;100.00;98494.31;5010865;28;20208;-64
2023/01/24 03:00:27;;;;;;;6.27;5.67;;;;;;;-0.69;100.00;98482.91;4965145;28;20304;-62
2023/01/24 03:02:55;;;;;;;7.00;6.40;;;;;;;-0.75;100.00;98479.72;5007565;28;20767;-64
2023/01/24 03:05:22;;;;;;;7.10;6.40;;;;;;;-0.83;100.00;98481.84;4994405;28;20219;-63
2023/01/24 03:07:50;;;;;;;6.33;5.57;;;;;;;-0.90;100.00;98478.75;4984315;28;20220;-64
2023/01/24 03:10:19;;;;;;;6.03;5.43;;;;;;;-0.90;100.00;98486.56;5010011;28;20900;-63
2023/01/24 03:34:52;;;;;;;7.03;6.27;;;;;;;-1.31;100.00;98481.69;4990026;28;20236;-62
2023/01/24 03:39:53;;;;;;;6.47;5.67;;;;;;;-1.27;100.00;98483.22;4984262;28;20448;-59
2023/01/24 03:40:12;;;;;;;7.20;6.30;;;;;;;-1.29;100.00;98484.22;5006199;28;20637;-64
2023/01/24 03:42:47;;;;;;;6.43;5.93;;;;;;;-1.31;100.00;98479.09;5007863;28;20231;-62
2023/01/24 03:45:17;;;;;;;5.80;5.30;;;;;;;-1.31;100.00;98476.50;4959205;28;20718;-64
2023/01/24 03:47:54;;;;;;;7.17;6.40;;;;;;;-1.34;100.00;98484.44;5003784;28;20270;-65
2023/01/24 03:53:09;;;;;;;6.23;5.63;;;;;;;-1.40;100.00;98480.41;4984199;28;20238;-60
2023/01/24 03:55:37;;;;;;;6.93;6.10;;;;;;;-1.37;100.00;98477.63;5008684;28;20216;-64
2023/01/24 03:58:05;;;;;;;6.00;5.50;;;;;;;-1.41;100.00;98483.91;5007411;28;20213;-62
2023/01/24 04:00:33;;;;;;;5.73;5.20;;;;;;;-1.42;100.00;98487.44;4961921;28;20746;-61
2023/01/24 04:03:02;;;;;;;6.17;5.50;;;;;;;-1.43;100.00;98480.56;5007013;28;20509;-62
2023/01/24 04:05:30;;;;;;;6.40;5.80;;;;;;;-1.50;100.00;98480.00;4991104;28;20212;-63
2023/01/24 04:07:57;;;;;;;5.60;5.20;;;;;;;-1.51;100.00;98496.53;4984052;28;20691;-62
2023/01/24 04:10:25;;;;;;;6.13;5.57;;;;;;;-1.46;100.00;98483.31;5008507;28;20436;-60
2023/01/24 04:12:54;;;;;;;5.80;5.30;;;;;;;-1.46;100.00;98485.91;5007675;28;20219;-62
2023/01/24 04:15:23;;;;;;;6.87;6.23;;;;;;;-1.41;100.00;98488.25;4958987;28;20679;-63
2023/01/24 04:17:51;;;;;;;6.37;5.70;;;;;;;-1.42;100.00;98489.19;5007060;28;20711;-62
2023/01/24 04:20:20;;;;;;;6.57;5.90;;;;;;;-1.39;100.00;98489.88;4981302;28;20683;-62
2023/01/24 04:22:48;;;;;;;7.00;6.30;;;;;;;-1.39;100.00;98495.06;4973050;28;20303;-64
2023/01/24 04:25:15;;;;;;;5.90;5.37;;;;;;;-1.32;100.00;98500.81;5001079;28;20251;-62
2023/01/24 04:27:43;;;;;;;6.17;5.67;;;;;;;-1.31;100.00;98494.72;5007630;28;20199;-62
2023/01/24 04:30:13;;;;;;;6.43;5.83;;;;;;;-1.31;100.00;98485.13;4990331;28;20236;-64
2023/01/24 04:32:41;;;;;;;6.20;5.73;;;;;;;-1.28;100.00;98489.34;4964964;28;20291;-63
2023/01/24 04:35:10;;;;;;;7.03;6.33;;;;;;;-1.26;100.00;98484.91;5011227;28;20213;-64
2023/01/24 04:37:39;;;;;;;6.27;5.73;;;;;;;-1.27;100.00;98482.38;4967118;28;20410;-62
2023/01/24 04:40:08;;;;;;;7.77;6.97;;;;;;;-1.22;100.00;98485.56;5006199;28;20192;-65
2023/01/24 04:42:38;;;;;;;7.63;6.67;;;;;;;-1.25;100.00;98489.19;5003340;28;20388;-65
2023/01/24 04:45:06;;;;;;;6.40;5.70;;;;;;;-1.16;100.00;98490.47;5001809;28;20317;-61
2023/01/24 04:47:34;;;;;;;6.90;6.23;;;;;;;-1.14;100.00;98491.22;4935903;28;20735;-62
2023/01/24 04:50:01;;;;;;;6.30;5.70;;;;;;;-1.07;100.00;98494.38;4999494;28;20449;-63
2023/01/24 04:52:29;;;;;;;6.17;5.67;;;;;;;-1.00;100.00;98492.31;4959860;28;20224;-62
2023/01/24 04:54:58;;;;;;;7.17;6.47;;;;;;;-0.99;100.00;98492.22;4956988;28;20228;-63
2023/01/24 04:57:26;;;;;;;6.90;5.93;;;;;;;-0.96;100.00;98496.44;5006073;28;20443;-64
2023/01/24 04:59:53;;;;;;;6.60;6.00;;;;;;;-0.92;100.00;98497.94;5003209;28;20251;-62
2023/01/24 05:02:21;;;;;;;6.40;5.83;;;;;;;-0.89;100.00;98498.63;4963408;28;20739;-64
2023/01/24 05:04:48;;;;;;;6.27;5.73;;;;;;;-0.80;100.00;98505.09;5004637;28;20200;-60
2023/01/24 05:07:16;;;;;;;5.87;5.37;;;;;;;-0.72;100.00;98496.91;4990001;28;20477;-65
2023/01/24 05:09:43;;;;;;;6.20;5.70;;;;;;;-0.73;100.00;98493.47;4971015;28;20750;-62
2023/01/24 05:12:12;;;;;;;6.57;5.97;;;;;;;-0.74;100.00;98501.34;5006223;28;20777;-64
2023/01/24 05:14:40;;;;;;;6.33;5.73;;;;;;;-0.76;100.00;98492.78;5006857;28;20747;-64
2023/01/24 05:17:07;;;;;;;5.60;5.10;;;;;;;-0.73;100.00;98500.44;4960551;28;22190;-63
2023/01/24 05:19:35;;;;;;;6.07;5.57;;;;;;;-0.69;100.00;98501.13;5009207;28;20204;-65
2023/01/24 05:22:02;;;;;;;5.57;5.10;;;;;;;-0.70;100.00;98502.88;4986843;28;20238;-65
2023/01/24 05:24:30;;;;;;;6.47;5.90;;;;;;;-0.63;100.00;98511.22;4990588;28;20212;-68
2023/01/24 05:26:58;;;;;;;6.40;5.77;;;;;;;-0.62;100.00;98512.91;4985151;28;20212;-65
2023/01/24 05:29:26;;;;;;;6.40;5.80;;;;;;;-0.62;100.00;98511.13;5010242;28;20224;-68
2023/01/24 05:31:55;;;;;;;6.53;6.03;;;;;;;-0.59;100.00;98516.16;4980975;28;20234;-65
2023/01/24 05:34:23;;;;;;;6.73;6.13;;;;;;;-0.55;100.00;98514.25;4993128;28;20396;-67
2023/01/24 05:36:50;;;;;;;7.43;6.73;;;;;;;-0.56;100.00;98514.34;5006814;28;20196;-65
2023/01/24 05:39:18;;;;;;;7.00;6.40;;;;;;;-0.52;100.00;98518.47;4971645;28;20394;-67
2023/01/24 05:41:46;;;;;;;6.43;5.80;;;;;;;-0.52;100.00;98523.66;4984030;28;20205;-64
2023/01/24 05:44:13;;;;;;;6.53;5.90;;;;;;;-0.54;100.00;98521.13;5008860;28;20849;-65
2023/01/24 05:46:43;;;;;;;7.50;6.80;;;;;;;-0.53;100.00;98514.19;5005844;28;20215;-65
2023/01/24 05:49:11;;;;;;;6.83;6.13;;;;;;;-0.56;100.00;98512.56;4975438;28;20303;-66
2023/01/24 05:51:39;;;;;;;5.93;5.43;;;;;;;-0.60;100.00;98508.44;5009433;28;20224;-67
2023/01/24 05:54:06;;;;;;;6.70;6.10;;;;;;;-0.57;100.00;98508.28;4988535;28;21710;-65
2023/01/24 05:56:34;;;;;;;6.37;5.87;;;;;;;-0.54;100.00;98520.31;4973616;28;20300;-65
2023/01/24 05:59:03;;;;;;;7.00;6.40;;;;;;;-0.55;100.00;98516.84;4978362;28;20815;-64
2023/01/24 06:01:30;;;;;;;8.23;6.37;;;;;;;-0.55;100.00;98519.47;5011280;28;20200;-66
2023/01/24 06:03:59;;;;;;;7.23;6.63;;;;;;;-0.61;100.00;98511.97;4950518;28;20209;-64
2023/01/24 06:06:27;;;;;;;6.37;5.80;;;;;;;-0.69;100.00;98519.34;5007141;28;20652;-63
2023/01/24 06:08:55;;;;;;;7.23;6.63;;;;;;;-0.79;100.00;98506.78;4996033;28;20224;-64
2023/01/24 06:11:24;;;;;;;6.87;6.27;;;;;;;-0.76;100.00;98529.22;4989785;28;20347;-65
2023/01/24 06:13:54;;;;;;;7.70;7.00;;;;;;;-0.78;100.00;98526.69;4987682;28;20687;-63
2023/01/24 06:16:23;;;;;;;7.37;6.67;;;;;;;-0.76;100.00;98529.22;5007915;28;20210;-64
2023/01/24 06:18:52;;;;;;;7.97;7.17;;;;;;;-0.73;100.00;98529.91;4965919;28;20585;-62
2023/01/24 06:21:33;;;;;;;8.57;7.77;;;;;;;-0.71;100.00;98523.78;4991482;28;20240;-64
2023/01/24 06:24:01;;;;;;;8.40;7.50;;;;;;;-0.67;100.00;98528.75;4984643;28;20200;-64
2023/01/24 06:26:29;;;;;;;7.93;7.17;;;;;;;-0.72;100.00;98530.75;4975561;28;20208;-64
2023/01/24 06:28:57;;;;;;;7.60;6.87;;;;;;;-0.60;100.00;98550.94;4985508;28;20235;-64
2023/01/24 06:31:33;;;;;;;7.27;6.60;;;;;;;-0.57;100.00;98549.09;4988473;28;20556;-64
2023/01/24 06:34:11;;;;;;;8.37;7.20;;;;;;;-0.59;100.00;98551.78;4965360;28;20310;-64
2023/01/24 06:36:52;;;;;;;9.03;7.77;;;;;;;-0.54;100.00;98554.97;4992735;28;20312;-64
2023/01/24 06:39:21;;;;;;;9.03;8.13;;;;;;;-0.59;100.00;98550.00;4998709;28;20220;-64
2023/01/24 06:41:49;;;;;;;8.30;7.60;;;;;;;-0.62;100.00;98552.78;4990866;28;20311;-64
2023/01/24 06:44:17;;;;;;;7.77;7.00;;;;;;;-0.64;100.00;98553.78;4990205;28;20209;-63
2023/01/24 06:46:45;;;;;;;8.77;7.50;;;;;;;-0.66;100.00;98566.88;5004059;28;20240;-63
2023/01/24 06:49:13;;;;;;;8.33;7.53;;;;;;;-0.63;100.00;98569.31;4994895;28;20235;-64
2023/01/24 06:51:42;;;;;;;8.90;8.10;;;;;;;-0.60;100.00;98573.53;4963145;28;20224;-64
2023/01/24 06:54:10;;;;;;;8.73;7.67;;;;;;;-0.61;100.00;98571.84;5009764;28;20197;-64
2023/01/24 06:56:37;;;;;;;9.00;7.87;;;;;;;-0.60;100.00;98578.75;4988706;28;20347;-62
2023/01/24 06:59:05;;;;;;;9.10;8.17;;;;;;;-0.55;100.00;98584.53;4971041;28;20228;-62
2023/01/24 07:01:32;;;;;;;8.70;7.50;;;;;;;-0.53;100.00;98584.47;5002828;28;20680;-67
2023/01/24 07:04:00;;;;;;;8.37;7.57;;;;;;;-0.49;100.00;98589.44;5009215;28;20205;-67
2023/01/24 07:06:27;;;;;;;9.33;8.43;;;;;;;-0.46;100.00;98594.47;4974084;28;20861;-65
2023/01/24 07:08:56;;;;;;;8.43;7.63;;;;;;;-0.50;100.00;98584.31;5006888;28;20231;-65
2023/01/24 07:11:26;;;;;;;8.87;8.07;;;;;;;-0.45;100.00;98584.91;4988720;28;20223;-67
2023/01/24 07:13:53;;;;;;;7.93;7.20;;;;;;;-0.39;100.00;98588.94;4991443;28;20219;-61
2023/01/24 07:16:21;;;;;;;8.47;7.67;;;;;;;-0.36;100.00;98599.22;4984443;28;20705;-62
2023/01/24 07:18:49;;;;;;;8.40;7.60;;;;;;;-0.31;100.00;98597.22;5008557;28;20251;-65
2023/01/24 07:21:18;;;;;;;8.93;8.03;;;;;;;-0.34;100.00;98586.97;4978690;28;20211;-63
2023/01/24 07:23:48;;;;;;;8.67;7.93;;;;;;;-0.22;100.00;98595.88;4998329;28;20261;-63
2023/01/24 07:26:18;;;;;;;8.83;7.93;;;;;;;-0.19;100.00;98600.91;5002081;28;20197;-63
2023/01/24 07:28:45;;;;;;;10.43;7.60;;;;;;;-0.21;100.00;98597.56;4986130;28;20998;-65
2023/01/24 07:31:15;;;;;;;8.17;7.33;;;;;;;-0.10;100.00;98610.03;4984614;28;20323;-62
2023/01/24 07:33:43;;;;;;;7.53;6.83;;;;;;;-0.10;100.00;98603.06;5005919;28;20208;-63
2023/01/24 07:36:15;;;;;;;8.17;7.47;;;;;;;-0.08;100.00;98609.03;4983160;28;20215;-62
2023/01/24 07:38:42;;;;;;;7.77;7.07;;;;;;;-0.08;100.00;98609.03;4979845;28;20468;-64
2023/01/24 07:41:10;;;;;;;7.10;6.50;;;;;;;-0.04;100.00;98609.69;5008995;28;20204;-62
2023/01/24 07:43:39;;;;;;;7.63;6.93;;;;;;;0.01;100.00;98609.47;4984320;28;20215;-61
2023/01/24 07:46:07;;;;;;;8.73;7.83;;;;;;;-0.02;100.00;98621.72;4986302;28;20218;-63
2023/01/24 07:48:35;;;;;;;7.93;7.00;;;;;;;0.05;100.00;98626.63;4994241;28;20224;-63
2023/01/24 07:51:02;;;;;;;7.60;6.90;;;;;;;0.12;100.00;98630.56;5009732;28;20600;-63
2023/01/24 07:53:30;;;;;;;8.13;7.43;;;;;;;0.16;100.00;98621.66;4958482;28;20918;-65
2023/01/24 07:55:59;;;;;;;9.03;8.13;;;;;;;0.25;100.00;98626.41;5005101;28;20587;-65
2023/01/24 07:58:29;;;;;;;8.47;7.47;;;;;;;0.34;100.00;98621.59;4986921;28;20227;-62
2023/01/24 08:00:59;;;;;;;8.43;7.63;;;;;;;0.33;100.00;98617.31;4989611;28;20209;-61
2023/01/24 08:03:26;;;;;;;9.37;8.57;;;;;;;0.34;100.00;98635.47;4985838;28;20523;-65
2023/01/24 08:05:54;;;;;;;8.57;7.70;;;;;;;0.37;100.00;98629.25;5005860;28;20497;-61
2023/01/24 08:08:22;;;;;;;10.13;9.13;;;;;;;0.36;100.00;98630.19;4957994;28;20506;-59
2023/01/24 08:10:49;;;;;;;8.53;7.73;;;;;;;0.34;100.00;98629.41;5009082;28;20192;-65
2023/01/24 08:13:17;;;;;;;8.83;7.97;;;;;;;0.46;100.00;98633.13;4995456;28;20261;-62
2023/01/24 08:15:44;;;;;;;8.37;7.57;;;;;;;0.44;100.00;98630.59;4988272;28;20205;-64
2023/01/24 08:18:13;;;;;;;9.85;9.05;;;;;;;0.50;100.00;98632.03;4993607;28;20540;-62
2023/01/24 08:20:41;;;;;;;9.43;8.57;;;;;;;0.49;100.00;98639.00;5000203;28;20220;-64
2023/01/24 08:23:09;;;;;;;8.73;7.77;;;;;;;0.55;100.00;98641.28;5006010;28;20210;-62
2023/01/24 08:25:36;;;;;;;7.80;7.00;;;;;;;0.57;100.00;98639.44;4966393;28;20416;-64
2023/01/24 08:28:04;;;;;;;9.53;8.53;;;;;;;0.57;100.00;98639.44;5006909;28;20232;-62
2023/01/24 08:30:32;;;;;;;7.67;7.07;;;;;;;0.59;100.00;98641.13;4991797;28;20317;-64
2023/01/24 08:33:00;;;;;;;8.10;7.40;;;;;;;0.67;100.00;98637.16;4987464;28;20243;-62
2023/01/24 08:35:29;;;;;;;7.93;7.23;;;;;;;0.78;100.00;98646.16;4987303;28;20603;-62
2023/01/24 08:37:57;;;;;;;8.07;7.27;;;;;;;0.88;100.00;98642.09;4974976;28;20612;-64
2023/01/24 08:40:26;;;;;;;9.23;8.33;;;;;;;0.89;100.00;98645.53;4962487;28;20212;-65
2023/01/24 08:42:56;;;;;;;7.63;6.93;;;;;;;0.86;100.00;98647.38;5001973;28;20208;-65
2023/01/24 08:45:23;;;;;;;8.37;7.57;;;;;;;0.86;100.00;98643.97;4986718;28;20684;-64
2023/01/24 08:47:52;;;;;;;8.50;7.60;;;;;;;0.82;100.00;98639.84;4989529;28;20304;-64
2023/01/24 08:50:20;;;;;;;7.30;6.70;;;;;;;0.84;100.00;98651.03;4987595;28;20253;-64
2023/01/24 08:52:50;;;;;;;7.77;7.07;;;;;;;0.92;100.00;98655.81;5004701;28;20228;-64
2023/01/24 08:55:17;;;;;;;8.23;7.40;;;;;;;0.92;100.00;98647.97;4963562;28;20220;-65
2023/01/24 08:57:45;;;;;;;7.60;6.90;;;;;;;0.94;100.00;98654.78;5006279;28;20575;-63
2023/01/24 09:00:13;;;;;;;8.30;7.60;;;;;;;0.92;100.00;98653.19;4988026;28;20300;-66
2023/01/24 09:02:41;;;;;;;8.83;7.07;;;;;;;0.86;100.00;98655.22;4988115;28;20774;-63
2023/01/24 09:05:09;;;;;;;8.33;7.40;;;;;;;0.97;100.00;98661.63;4986403;28;21019;-65
2023/01/24 09:07:38;;;;;;;8.07;7.40;;;;;;;0.96;100.00;98668.59;5009337;28;20204;-63
2023/01/24 09:10:09;;;;;;;7.83;7.10;;;;;;;0.98;100.00;98666.75;4961964;28;21192;-65
2023/01/24 09:12:37;;;;;;;7.93;7.30;;;;;;;0.98;100.00;98669.34;5013161;28;20632;-63
2023/01/24 09:15:05;;;;;;;7.50;6.90;;;;;;;0.96;100.00;98675.59;4989910;28;20348;-65
2023/01/24 09:17:34;;;;;;;8.60;7.70;;;;;;;0.98;100.00;98664.13;4996654;28;20219;-65
2023/01/24 09:20:02;;;;;;;9.20;8.30;;;;;;;1.03;100.00;98673.47;4988735;28;21066;-64
2023/01/24 09:22:29;;;;;;;7.63;7.03;;;;;;;1.07;100.00;98673.22;5012038;28;20208;-64
2023/01/24 09:24:57;;;;;;;9.10;8.30;;;;;;;1.09;100.00;98678.34;5007028;28;20215;-63
2023/01/24 09:27:26;;;;;;;9.50;8.60;;;;;;;1.13;100.00;98678.09;4966574;28;20211;-64
2023/01/24 09:29:53;;;;;;;8.17;7.47;;;;;;;1.00;100.00;98677.94;5007148;28;20632;-63
2023/01/24 09:32:21;;;;;;;8.40;7.60;;;;;;;0.98;100.00;98687.63;4992329;28;20232;-64
2023/01/24 09:34:49;;;;;;;8.40;7.50;;;;;;;0.85;100.00;98678.81;4980742;28;20414;-64
2023/01/24 09:37:17;;;;;;;8.30;7.60;;;;;;;0.96;100.00;98684.25;5006645;28;20575;-63
2023/01/24 09:39:45;;;;;;;8.87;8.07;;;;;;;0.95;100.00;98673.94;5007964;28;20220;-63
2023/01/24 09:42:16;;;;;;;8.27;7.47;;;;;;;0.99;100.00;98680.66;4966925;28;20607;-66
2023/01/24 09:44:48;;;;;;;8.60;7.90;;;;;;;1.02;100.00;98680.47;5009635;28;20443;-63
2023/01/24 09:47:22;;;;;;;7.50;6.87;;;;;;;1.05;100.00;98677.69;4990480;28;20216;-64
2023/01/24 09:49:53;;;;;;;8.60;7.80;;;;;;;1.04;100.00;98678.63;4991781;28;20622;-63
2023/01/24 09:52:27;;;;;;;9.67;8.77;;;;;;;1.06;100.00;98679.38;4986647;28;20596;-64
2023/01/24 09:55:01;;;;;;;8.70;7.97;;;;;;;1.11;100.00;98679.94;5002956;28;20590;-63
2023/01/24 09:57:33;;;;;;;8.53;7.83;;;;;;;1.10;100.00;98678.25;4962255;28;20516;-65
2023/01/24 10:00:13;;;;;;;10.00;9.10;;;;;;;1.08;100.00;98677.50;5001616;28;20235;-65
2023/01/24 10:02:42;;;;;;;9.03;8.23;;;;;;;1.01;100.00;98682.22;4988298;28;20212;-65
2023/01/24 10:05:13;;;;;;;8.97;8.13;;;;;;;1.18;100.00;98674.38;4988125;28;21017;-64
2023/01/24 10:07:57;;;;;;;9.60;8.70;;;;;;;1.09;100.00;98673.13;4989916;28;20219;-63
2023/01/24 10:10:40;;;;;;;9.30;8.40;;;;;;;1.11;100.00;98672.13;5006590;28;20219;-65
2023/01/24 10:13:18;;;;;;;9.40;8.60;;;;;;;1.18;100.00;98661.31;4949695;28;20426;-64
2023/01/24 10:15:50;;;;;;;9.27;8.37;;;;;;;1.23;100.00;98670.56;5010319;28;20201;-64
2023/01/24 10:18:41;;;;;;;8.33;7.53;;;;;;;1.24;100.00;98658.34;4971966;28;20240;-64
2023/01/24 10:21:32;;;;;;;8.90;8.00;;;;;;;1.38;100.00;98660.16;4976169;28;20219;-65
2023/01/24 10:24:02;;;;;;;10.03;9.13;;;;;;;1.26;100.00;98653.88;4999128;28;20279;-63
2023/01/24 10:26:34;;;;;;;10.00;8.57;;;;;;;1.28;100.00;98652.88;5008799;28;20208;-63
2023/01/24 10:29:11;;;;;;;10.77;9.70;;;;;;;1.30;100.00;98656.22;4969374;28;20250;-63
2023/01/24 10:31:43;;;;;;;9.53;8.57;;;;;;;1.37;100.00;98655.88;5012130;28;20203;-63
2023/01/24 10:34:13;;;;;;;9.60;8.70;;;;;;;1.32;100.00;98656.13;4981183;28;20789;-64
2023/01/24 10:36:44;;;;;;;8.83;8.03;;;;;;;1.36;100.00;98659.41;4990846;28;20196;-63
2023/01/24 10:39:12;;;;;;;8.77;7.93;;;;;;;1.36;100.00;98664.63;4966599;28;20767;-63
2023/01/24 10:41:40;;;;;;;11.10;10.10;;;;;;;1.38;100.00;98660.16;4997893;28;20236;-63
2023/01/24 10:44:13;;;;;;;8.07;7.40;;;;;;;1.34;100.00;98663.88;4960016;28;20212;-63
2023/01/24 10:47:13;;;;;;;10.00;9.00;;;;;;;1.36;100.00;98665.50;5007835;28;20212;-63
2023/01/24 10:49:42;;;;;;;8.53;7.77;;;;;;;1.41;100.00;98667.81;4994840;28;20425;-63
2023/01/24 10:52:13;;;;;;;8.63;7.93;;;;;;;1.21;100.00;98655.91;4978075;28;20796;-63
2023/01/24 10:54:46;;;;;;;8.93;8.03;;;;;;;1.35;100.00;98668.19;5007189;28;20312;-65
2023/01/24 10:57:41;;;;;;;8.30;7.50;;;;;;;1.33;100.00;98663.06;5001370;28;20507;-62
2023/01/24 11:00:30;;;;;;;9.47;8.57;;;;;;;1.33;100.00;98659.59;4931239;28;20232;-62
2023/01/24 11:03:01;;;;;;;9.20;8.40;;;;;;;1.19;100.00;98652.56;5007554;28;20204;-62
2023/01/24 11:05:38;;;;;;;7.83;7.13;;;;;;;1.17;100.00;98657.88;4995284;28;20631;-62
2023/01/24 11:08:06;;;;;;;12.30;11.00;;;;;;;1.23;100.00;98654.91;4984664;28;20709;-62
2023/01/24 11:10:37;;;;;;;9.27;8.47;;;;;;;1.29;100.00;98651.94;5001787;28;20212;-63
2023/01/24 11:13:27;;;;;;;8.63;7.93;;;;;;;1.26;100.00;98646.03;5010303;28;20417;-62
2023/01/24 11:15:57;;;;;;;10.00;9.10;;;;;;;1.20;100.00;98644.66;4961994;28;20217;-61
2023/01/24 11:18:27;;;;;;;9.27;8.37;;;;;;;1.19;100.00;98637.75;5006209;28;20231;-62
2023/01/24 11:21:06;;;;;;;8.80;7.90;;;;;;;1.19;100.00;98642.97;4985308;28;20242;-64
2023/01/24 11:23:34;;;;;;;7.77;7.17;;;;;;;1.29;100.00;98638.03;4992498;28;20215;-63
2023/01/24 11:26:03;;;;;;;9.27;8.30;;;;;;;1.37;100.00;98633.22;4988223;28;20461;-63
2023/01/24 11:28:33;;;;;;;9.50;8.67;;;;;;;1.31;100.00;98633.56;5009262;28;20310;-63
2023/01/24 11:31:02;;;;;;;9.80;8.80;;;;;;;1.42;100.00;98631.19;4960861;28;20468;-64
2023/01/24 11:33:42;;;;;;;10.83;9.80;;;;;;;1.62;100.00;98621.28;5000714;28;20258;-64
2023/01/24 11:36:23;;;;;;;9.13;8.23;;;;;;;1.54;100.00;98624.38;4990327;28;20204;-64
2023/01/24 11:38:52;;;;;;;10.93;9.30;;;;;;;1.65;100.00;98620.28;4994295;28;20727;-64
2023/01/24 11:41:24;;;;;;;9.53;7.90;;;;;;;1.61;100.00;98609.16;4990015;28;20196;-64
2023/01/24 11:44:17;;;;;;;9.70;8.70;;;;;;;1.81;100.00;98610.56;5008027;28;20201;-63
2023/01/24 11:46:51;;;;;;;8.97;8.17;;;;;;;1.81;100.00;98602.72;4964400;28;20222;-64
2023/01/24 11:49:36;;;;;;;8.50;7.80;;;;;;;1.72;100.00;98609.38;5005033;28;20458;-64
2023/01/24 11:52:13;;;;;;;9.23;7.63;;;;;;;1.66;100.00;98599.28;4990522;28;20211;-64
2023/01/24 11:54:45;;;;;;;9.60;8.70;;;;;;;1.71;100.00;98614.69;4974699;28;20844;-64
2023/01/24 11:57:21;;;;;;;8.07;7.37;;;;;;;1.68;100.00;98609.66;5009270;28;20201;-64
2023/01/24 11:59:58;;;;;;;9.07;8.27;;;;;;;1.69;100.00;98599.09;5011358;28;20212;-64
2023/01/24 12:02:54;;;;;;;11.07;9.97;;;;;;;1.69;100.00;98601.69;4963995;28;20207;-64
2023/01/24 12:05:33;;;;;;;9.47;8.57;;;;;;;1.77;100.00;98603.84;5007033;28;20208;-64
2023/01/24 12:08:11;;;;;;;9.47;8.57;;;;;;;2.00;100.00;98597.22;4990264;28;20385;-64
2023/01/24 12:10:49;;;;;;;9.30;8.40;;;;;;;1.95;100.00;98601.91;4974903;28;21637;-64
2023/01/24 12:13:24;;;;;;;9.00;7.83;;;;;;;1.84;100.00;98592.09;5005960;28;20253;-64
2023/01/24 12:16:02;;;;;;;8.93;7.47;;;;;;;1.70;100.00;98589.50;5010009;28;20612;-64